Terminal Aerodrome Forecast
Issued by NWS

Home | Current Version | Previous Version | Text Only | Print | Product List | Glossary On
Versions: 1 2 3 4 5 6 7 8 9 10 11 12 13 14 15 16 17
000
FTUS42 KMLB 142330
TAFTIX
TAF
KTIX 142330Z 1500/1524 04012G18KT P6SM VCSH SCT020 SCT030 BKN050
     FM150600 02012KT P6SM VCSH SCT020 BKN040
     FM151400 35014G20KT P6SM VCSH SCT025 BKN035 BKN120
     AMD NOT SKED 1501/1511=

USA.gov is the U.S. government's official web portal to all federal, state and local government web resources and services.